Time;durP1;ratioP1;P1;durP2;ratioP2;P2;SDS_P1;SDS_P2;PMS_P1;PMS_P2;Temp;Humidity;BMP_temperature;BMP_pressure;BME280_temperature;BME280_humidity;BME280_pressure;Samples;Min_cycle;Max_cycle;Signal;HPM_P1;HPM_P2
2021/03/07 00:00:35;;;;;;;12.07;7.57;;;1.30;63.60;;;;;;5000725;28;20167;-74
2021/03/07 00:03:01;;;;;;;12.07;7.00;;;1.30;63.50;;;;;;5009040;28;20458;-74
2021/03/07 00:05:26;;;;;;;17.90;8.70;;;1.30;63.50;;;;;;5018267;28;20437;-75
2021/03/07 00:07:53;;;;;;;20.83;8.03;;;1.30;63.80;;;;;;5013058;28;20179;-75
2021/03/07 00:10:19;;;;;;;12.00;6.60;;;1.30;64.00;;;;;;5017384;28;20793;-75
2021/03/07 00:12:46;;;;;;;12.30;6.47;;;1.30;64.00;;;;;;5019172;28;20950;-74
2021/03/07 00:15:14;;;;;;;12.00;6.73;;;1.30;64.10;;;;;;5017439;28;20437;-76
2021/03/07 00:17:40;;;;;;;159.73;78.80;;;1.20;64.00;;;;;;4986181;28;20465;-76
2021/03/07 00:20:09;;;;;;;16.30;8.30;;;1.20;66.50;;;;;;4996339;28;20422;-76
2021/03/07 00:22:35;;;;;;;16.23;8.60;;;1.20;65.30;;;;;;5013251;28;20414;-76
2021/03/07 00:25:00;;;;;;;12.63;7.47;;;1.20;65.30;;;;;;5012574;28;20497;-77
2021/03/07 00:27:26;;;;;;;15.90;7.43;;;1.10;64.90;;;;;;5012884;28;20426;-76
2021/03/07 00:29:52;;;;;;;13.37;7.20;;;1.10;65.00;;;;;;4997634;28;20172;-78
2021/03/07 00:32:19;;;;;;;15.10;6.43;;;1.00;65.20;;;;;;5000006;28;20176;-75
2021/03/07 00:34:44;;;;;;;9.23;6.10;;;1.00;65.60;;;;;;4995946;28;20179;-75
2021/03/07 00:37:15;;;;;;;16.93;7.77;;;0.90;65.60;;;;;;5020331;28;20445;-77
2021/03/07 00:39:40;;;;;;;14.87;9.70;;;0.90;66.00;;;;;;4999528;28;20696;-75
2021/03/07 00:42:06;;;;;;;20.13;8.63;;;0.90;66.00;;;;;;5016888;28;20418;-77
2021/03/07 00:44:32;;;;;;;14.43;8.70;;;0.90;66.50;;;;;;4997202;28;20177;-75
2021/03/07 00:46:58;;;;;;;16.17;9.13;;;0.80;66.50;;;;;;5015106;28;20186;-76
2021/03/07 00:49:32;;;;;;;16.53;8.80;;;0.80;66.50;;;;;;4998033;28;20517;-77
2021/03/07 00:51:58;;;;;;;20.73;10.37;;;0.80;66.90;;;;;;4995641;28;20452;-75
2021/03/07 00:54:24;;;;;;;23.50;10.33;;;0.80;67.10;;;;;;4998202;28;20437;-75
2021/03/07 00:56:52;;;;;;;21.10;9.73;;;0.80;67.50;;;;;;5016518;28;20433;-77
2021/03/07 00:59:18;;;;;;;17.10;10.87;;;0.70;67.30;;;;;;5013455;28;20206;-76
2021/03/07 01:01:44;;;;;;;23.53;10.80;;;0.70;67.50;;;;;;5015032;28;20406;-75
2021/03/07 01:04:10;;;;;;;14.90;9.07;;;0.70;67.70;;;;;;5009073;28;20196;-76
2021/03/07 01:06:35;;;;;;;15.30;9.00;;;0.60;67.70;;;;;;5000423;28;20183;-76
2021/03/07 01:09:02;;;;;;;15.27;9.77;;;0.60;68.10;;;;;;4981893;28;20214;-77
2021/03/07 01:11:28;;;;;;;15.27;9.63;;;0.60;68.40;;;;;;4987425;28;20516;-75
2021/03/07 01:13:57;;;;;;;15.53;9.73;;;0.60;68.70;;;;;;5016304;28;20516;-76
2021/03/07 01:16:23;;;;;;;16.47;10.13;;;0.60;68.90;;;;;;5016074;28;20199;-76
2021/03/07 01:18:49;;;;;;;29.47;10.10;;;0.60;68.80;;;;;;5018972;28;20457;-75
2021/03/07 01:21:15;;;;;;;19.73;9.67;;;0.60;68.90;;;;;;5012730;28;20415;-75
2021/03/07 01:23:41;;;;;;;14.30;8.90;;;0.60;69.10;;;;;;5002269;28;20419;-74
2021/03/07 01:26:07;;;;;;;18.77;10.77;;;0.60;69.30;;;;;;5006065;28;20226;-75
2021/03/07 01:28:33;;;;;;;17.03;9.07;;;0.60;69.60;;;;;;5033602;28;20902;-75
2021/03/07 01:30:58;;;;;;;18.07;10.80;;;0.50;69.40;;;;;;5020350;28;20986;-75
2021/03/07 01:33:24;;;;;;;19.53;10.20;;;0.50;69.40;;;;;;5020544;28;20465;-75
2021/03/07 01:35:50;;;;;;;16.50;9.23;;;0.50;69.50;;;;;;4992838;28;20199;-72
2021/03/07 01:38:16;;;;;;;20.33;9.57;;;0.40;69.70;;;;;;4996924;28;20545;-73
2021/03/07 01:40:52;;;;;;;13.80;9.37;;;0.40;70.00;;;;;;5004006;28;20707;-73
2021/03/07 01:43:20;;;;;;;21.10;10.93;;;0.40;70.30;;;;;;5029950;28;20511;-74
2021/03/07 01:45:46;;;;;;;21.33;9.90;;;0.40;70.60;;;;;;5016370;28;20441;-72
2021/03/07 01:48:13;;;;;;;17.20;10.50;;;0.40;70.80;;;;;;5016421;28;20421;-73
2021/03/07 01:50:41;;;;;;;14.93;8.53;;;0.40;70.80;;;;;;4998605;28;20257;-73
2021/03/07 01:53:07;;;;;;;18.60;9.73;;;0.40;70.70;;;;;;4999516;28;20437;-74
2021/03/07 01:55:35;;;;;;;16.80;8.80;;;0.30;70.70;;;;;;5024281;28;20806;-74
2021/03/07 01:58:24;;;;;;;16.93;9.00;;;0.30;70.90;;;;;;4988150;28;20509;-72
2021/03/07 02:00:50;;;;;;;17.63;9.70;;;0.30;71.10;;;;;;4998706;28;20999;-72
2021/03/07 02:03:17;;;;;;;25.37;13.97;;;0.20;71.20;;;;;;4988967;28;20501;-74
2021/03/07 02:05:44;;;;;;;31.30;14.63;;;0.20;71.30;;;;;;5021737;28;20471;-74
2021/03/07 02:08:10;;;;;;;44.37;21.13;;;0.20;71.40;;;;;;5027364;28;20429;-74
2021/03/07 02:10:45;;;;;;;31.17;13.80;;;0.10;71.50;;;;;;5023301;28;20417;-72
2021/03/07 02:13:16;;;;;;;15.43;9.03;;;0.10;71.70;;;;;;5020498;28;20421;-75
2021/03/07 02:15:45;;;;;;;13.67;9.27;;;0.10;71.70;;;;;;5012381;28;20971;-73
2021/03/07 02:18:12;;;;;;;14.70;9.10;;;0.10;71.90;;;;;;5002121;28;20517;-74
2021/03/07 02:20:46;;;;;;;17.30;8.27;;;0.10;71.90;;;;;;4998756;28;20422;-74
2021/03/07 02:23:16;;;;;;;15.87;8.00;;;0.10;72.00;;;;;;4982247;28;20425;-74
2021/03/07 02:25:42;;;;;;;15.67;8.37;;;0.10;72.00;;;;;;4979446;28;20474;-75
2021/03/07 02:28:09;;;;;;;18.33;7.43;;;0.10;72.10;;;;;;4962756;28;20422;-74
2021/03/07 02:30:37;;;;;;;17.07;8.40;;;0.10;72.20;;;;;;4983756;28;20454;-73
2021/03/07 02:33:27;;;;;;;16.93;7.83;;;0.00;72.10;;;;;;4986570;28;20946;-74
2021/03/07 02:36:04;;;;;;;12.40;6.47;;;0.00;72.20;;;;;;4993307;28;20972;-75
2021/03/07 02:38:32;;;;;;;14.57;8.53;;;0.00;72.20;;;;;;4976654;28;20544;-76
2021/03/07 02:40:59;;;;;;;13.33;7.60;;;0.00;72.40;;;;;;5016367;28;20574;-72
2021/03/07 02:43:30;;;;;;;13.40;8.17;;;0.00;72.40;;;;;;5008820;28;20437;-74
2021/03/07 02:45:59;;;;;;;15.17;8.30;;;0.00;72.40;;;;;;4980907;28;20427;-74
2021/03/07 02:48:27;;;;;;;11.67;7.17;;;-0.10;72.50;;;;;;4997326;28;20513;-74
2021/03/07 02:50:54;;;;;;;13.50;7.60;;;0.00;72.70;;;;;;4996716;28;20415;-75
2021/03/07 02:53:26;;;;;;;13.17;7.77;;;-0.10;72.70;;;;;;5008075;28;20399;-73
2021/03/07 02:56:16;;;;;;;10.50;7.40;;;-0.10;72.80;;;;;;4995564;28;20509;-73
2021/03/07 02:58:45;;;;;;;13.20;7.77;;;-0.10;73.00;;;;;;4974400;28;21091;-73
2021/03/07 03:01:15;;;;;;;14.30;8.17;;;-0.10;73.20;;;;;;4997387;28;20435;-73
2021/03/07 03:03:43;;;;;;;15.90;7.70;;;-0.10;73.40;;;;;;4992660;28;20433;-73
2021/03/07 03:06:10;;;;;;;16.00;7.10;;;-0.10;73.30;;;;;;4999480;28;20499;-72
2021/03/07 03:08:38;;;;;;;15.20;7.83;;;-0.10;73.40;;;;;;5002532;28;20425;-73
2021/03/07 03:11:04;;;;;;;14.17;8.13;;;-0.10;73.60;;;;;;5002315;28;20410;-76
2021/03/07 03:13:33;;;;;;;15.13;8.10;;;-0.20;73.40;;;;;;5003908;28;20425;-75
2021/03/07 03:16:00;;;;;;;13.80;6.90;;;-0.20;73.50;;;;;;4997973;28;20839;-74
2021/03/07 03:18:28;;;;;;;13.43;8.13;;;-0.20;73.60;;;;;;4996933;28;20458;-75
2021/03/07 03:20:58;;;;;;;14.43;8.00;;;-0.20;73.60;;;;;;4981543;28;20952;-73
2021/03/07 03:23:24;;;;;;;14.27;8.03;;;-0.20;73.70;;;;;;4988328;28;20484;-74
2021/03/07 03:25:51;;;;;;;15.43;6.80;;;-0.20;73.90;;;;;;5016954;28;20441;-74
2021/03/07 03:28:19;;;;;;;10.13;7.37;;;-0.20;74.00;;;;;;5008436;28;20441;-72
2021/03/07 03:30:45;;;;;;;10.93;7.30;;;-0.20;74.10;;;;;;5000691;28;20415;-74
2021/03/07 03:33:11;;;;;;;12.63;8.00;;;-0.20;74.20;;;;;;5000024;28;20446;-74
2021/03/07 03:35:37;;;;;;;15.23;8.00;;;-0.10;74.10;;;;;;5003252;28;20481;-74
2021/03/07 03:38:03;;;;;;;18.37;8.37;;;-0.20;73.80;;;;;;5008574;28;20271;-72
2021/03/07 03:40:29;;;;;;;10.50;7.97;;;-0.20;73.40;;;;;;4993826;28;20172;-72
2021/03/07 03:43:03;;;;;;;15.70;7.20;;;-0.20;73.60;;;;;;4998096;28;20422;-72
2021/03/07 03:45:32;;;;;;;13.70;8.07;;;-0.30;73.60;;;;;;5032464;28;20418;-74
2021/03/07 03:48:01;;;;;;;13.90;8.00;;;-0.30;73.80;;;;;;5014175;28;20455;-74
2021/03/07 03:50:29;;;;;;;13.80;7.00;;;-0.30;74.30;;;;;;4997114;28;20418;-72
2021/03/07 03:52:57;;;;;;;11.83;7.10;;;-0.30;74.40;;;;;;5016895;28;20427;-73
2021/03/07 03:55:26;;;;;;;12.07;7.80;;;-0.30;74.40;;;;;;5015896;28;20526;-75
2021/03/07 03:57:55;;;;;;;15.50;8.40;;;-0.40;74.60;;;;;;5015804;28;20454;-73
2021/03/07 04:00:26;;;;;;;21.97;8.00;;;-0.30;75.00;;;;;;5015107;28;20410;-74
2021/03/07 04:02:57;;;;;;;16.03;8.00;;;-0.30;75.00;;;;;;5000173;28;20486;-73
2021/03/07 04:05:25;;;;;;;14.17;8.30;;;-0.30;74.80;;;;;;5016390;28;20478;-73
2021/03/07 04:07:51;;;;;;;19.57;8.13;;;-0.30;74.50;;;;;;4998055;28;20470;-74
2021/03/07 04:10:22;;;;;;;14.07;7.20;;;-0.30;74.30;;;;;;5025180;28;20426;-74
2021/03/07 04:12:49;;;;;;;13.70;7.70;;;-0.30;74.40;;;;;;5030555;28;20414;-73
2021/03/07 04:15:18;;;;;;;11.13;7.70;;;-0.40;74.30;;;;;;5018074;28;20860;-74
2021/03/07 04:17:48;;;;;;;14.83;7.40;;;-0.40;74.60;;;;;;5008722;28;20465;-74
2021/03/07 04:20:13;;;;;;;10.33;7.50;;;-0.40;74.80;;;;;;4977699;28;20444;-73
2021/03/07 04:22:39;;;;;;;18.73;7.57;;;-0.50;75.00;;;;;;4994433;28;20945;-73
2021/03/07 04:25:07;;;;;;;10.43;6.70;;;-0.40;75.40;;;;;;4994285;28;20176;-74
2021/03/07 04:27:33;;;;;;;11.33;7.13;;;-0.40;75.60;;;;;;5011949;28;20194;-74
2021/03/07 04:29:59;;;;;;;9.60;7.00;;;-0.40;75.40;;;;;;4996792;28;21042;-75
2021/03/07 04:32:25;;;;;;;16.40;7.80;;;-0.40;75.30;;;;;;5015596;28;20492;-74
2021/03/07 04:34:51;;;;;;;11.93;6.97;;;-0.40;75.50;;;;;;5014609;28;20229;-73
2021/03/07 04:37:17;;;;;;;15.10;8.07;;;-0.40;75.80;;;;;;4996120;28;20967;-72
2021/03/07 04:39:43;;;;;;;15.27;7.20;;;-0.40;75.60;;;;;;5013741;28;20406;-74
2021/03/07 04:42:09;;;;;;;13.43;8.40;;;-0.40;75.40;;;;;;4994959;28;20163;-72
2021/03/07 04:44:34;;;;;;;11.73;7.17;;;-0.50;75.00;;;;;;4977890;28;20254;-72
2021/03/07 04:47:00;;;;;;;10.03;7.00;;;-0.50;75.30;;;;;;4993795;28;20442;-74
2021/03/07 04:49:25;;;;;;;14.57;7.33;;;-0.50;75.60;;;;;;4992558;28;20258;-75
2021/03/07 04:51:51;;;;;;;16.93;7.10;;;-0.50;75.60;;;;;;4992154;28;20211;-73
2021/03/07 04:54:17;;;;;;;11.60;6.83;;;-0.50;75.50;;;;;;5010156;28;20225;-73
2021/03/07 04:56:43;;;;;;;17.80;8.80;;;-0.50;75.40;;;;;;5011963;28;20446;-73
2021/03/07 04:59:09;;;;;;;10.70;7.07;;;-0.60;75.30;;;;;;5012017;28;20301;-75
2021/03/07 05:01:38;;;;;;;13.13;7.70;;;-0.60;75.20;;;;;;4994312;28;20171;-73
2021/03/07 05:04:05;;;;;;;9.83;6.57;;;-0.60;75.00;;;;;;5012196;28;20409;-74
2021/03/07 05:06:35;;;;;;;10.93;6.37;;;-0.60;74.80;;;;;;5010837;28;20441;-74
2021/03/07 05:09:00;;;;;;;14.40;8.03;;;-0.60;74.10;;;;;;4974965;28;20422;-73
2021/03/07 05:11:26;;;;;;;9.87;6.70;;;-0.60;72.20;;;;;;4992317;28;20430;-74
2021/03/07 05:13:51;;;;;;;12.73;7.40;;;-0.50;71.60;;;;;;4976245;28;20172;-73
2021/03/07 05:16:17;;;;;;;10.23;5.77;;;-0.60;70.60;;;;;;4996359;28;20191;-73
2021/03/07 05:18:43;;;;;;;14.70;7.63;;;-0.50;70.20;;;;;;5006057;28;20196;-73
2021/03/07 05:21:10;;;;;;;11.57;6.47;;;-0.50;69.70;;;;;;5007112;28;20274;-73
2021/03/07 05:23:36;;;;;;;12.97;7.60;;;-0.50;69.30;;;;;;5008594;28;20419;-73
2021/03/07 05:26:02;;;;;;;13.30;6.77;;;-0.60;69.30;;;;;;4992263;28;20537;-75
2021/03/07 05:28:27;;;;;;;12.27;6.97;;;-0.50;69.10;;;;;;4974826;28;20465;-74
2021/03/07 05:30:53;;;;;;;9.57;6.60;;;-0.60;69.70;;;;;;4992715;28;20423;-73
2021/03/07 05:33:19;;;;;;;14.97;7.47;;;-0.60;68.90;;;;;;4986234;28;20298;-74
2021/03/07 05:35:45;;;;;;;9.43;6.60;;;-0.60;68.90;;;;;;4984384;28;20315;-74
2021/03/07 05:38:11;;;;;;;8.90;6.63;;;-0.60;69.10;;;;;;4997219;28;20191;-72
2021/03/07 05:40:37;;;;;;;15.67;8.37;;;-0.60;69.10;;;;;;4982257;28;20807;-75
2021/03/07 05:43:06;;;;;;;12.03;7.40;;;-0.60;69.10;;;;;;4998131;28;20422;-75
2021/03/07 05:45:32;;;;;;;11.93;7.80;;;-0.70;68.90;;;;;;5013744;28;20621;-75
2021/03/07 05:47:59;;;;;;;12.00;7.33;;;-0.70;69.20;;;;;;4994512;28;20505;-74
2021/03/07 05:50:25;;;;;;;10.90;6.60;;;-0.70;69.40;;;;;;5014747;28;20406;-74
2021/03/07 05:52:53;;;;;;;17.13;9.00;;;-0.70;69.70;;;;;;5014353;28;20433;-73
2021/03/07 05:55:19;;;;;;;11.20;7.80;;;-0.70;70.10;;;;;;5015209;28;20442;-75
2021/03/07 05:57:46;;;;;;;18.63;8.57;;;-0.70;70.70;;;;;;4998036;28;20445;-75
2021/03/07 06:00:13;;;;;;;24.00;9.57;;;-0.70;71.00;;;;;;4995731;28;20426;-74
2021/03/07 06:02:39;;;;;;;12.90;8.40;;;-0.70;71.30;;;;;;5014880;28;20761;-76
2021/03/07 06:05:05;;;;;;;11.77;8.23;;;-0.70;71.40;;;;;;4997257;28;20421;-74
2021/03/07 06:07:31;;;;;;;13.30;8.10;;;-0.70;71.40;;;;;;5013665;28;20163;-75
2021/03/07 06:10:20;;;;;;;14.60;8.57;;;-0.70;71.50;;;;;;4996884;28;20938;-74
2021/03/07 06:13:10;;;;;;;14.47;8.37;;;-0.70;71.80;;;;;;5004601;28;20215;-73
2021/03/07 06:15:40;;;;;;;15.83;8.83;;;-0.70;72.10;;;;;;4996142;28;20844;-74
2021/03/07 06:18:17;;;;;;;16.37;8.30;;;-0.70;72.60;;;;;;4997600;28;20462;-75
2021/03/07 06:20:44;;;;;;;13.83;8.30;;;-0.70;72.50;;;;;;4995734;28;20449;-74
2021/03/07 06:23:10;;;;;;;14.10;7.90;;;-0.70;72.60;;;;;;5016550;28;20850;-74
2021/03/07 06:25:52;;;;;;;13.50;8.30;;;-0.70;72.70;;;;;;5016570;28;20446;-73
2021/03/07 06:28:27;;;;;;;19.70;9.20;;;-0.70;72.60;;;;;;4996934;28;20415;-74
2021/03/07 06:30:54;;;;;;;12.23;7.63;;;-0.60;72.70;;;;;;4994928;28;20935;-75
2021/03/07 06:33:31;;;;;;;11.57;7.57;;;-0.60;72.70;;;;;;5005054;28;20428;-73
2021/03/07 06:36:20;;;;;;;11.67;8.27;;;-0.50;72.90;;;;;;5006108;28;20558;-73
2021/03/07 06:38:51;;;;;;;15.60;9.20;;;-0.40;72.80;;;;;;5013789;28;20458;-75
2021/03/07 06:41:18;;;;;;;13.43;8.33;;;-0.40;72.80;;;;;;5013984;28;20406;-73
2021/03/07 06:43:44;;;;;;;11.67;7.33;;;-0.40;72.50;;;;;;5014816;28;20406;-74
2021/03/07 06:46:30;;;;;;;16.57;8.50;;;-0.40;72.50;;;;;;5014422;28;20520;-72
2021/03/07 06:48:57;;;;;;;15.13;8.33;;;-0.30;72.30;;;;;;5015013;28;20416;-74
2021/03/07 06:51:26;;;;;;;14.07;8.33;;;-0.30;72.30;;;;;;4983091;28;20450;-73
2021/03/07 06:53:52;;;;;;;14.03;7.77;;;-0.20;71.90;;;;;;4998463;28;20417;-74
2021/03/07 06:56:42;;;;;;;10.53;7.27;;;-0.20;71.70;;;;;;4997082;28;20430;-73
2021/03/07 06:59:12;;;;;;;11.90;7.70;;;-0.10;70.80;;;;;;4994743;28;20367;-74
2021/03/07 07:01:42;;;;;;;10.23;7.50;;;-0.10;70.20;;;;;;4976963;28;20450;-73
2021/03/07 07:04:09;;;;;;;12.53;7.10;;;0.00;70.00;;;;;;5009636;28;20474;-76
2021/03/07 07:06:36;;;;;;;10.33;6.67;;;0.00;69.70;;;;;;4976217;28;20427;-75
2021/03/07 07:09:02;;;;;;;15.50;8.60;;;0.10;68.90;;;;;;4976540;28;20452;-74
2021/03/07 07:11:39;;;;;;;11.67;7.70;;;0.10;68.40;;;;;;4993863;28;20415;-77
2021/03/07 07:14:05;;;;;;;15.83;7.00;;;0.20;67.80;;;;;;4994035;28;20784;-75
2021/03/07 07:16:34;;;;;;;13.23;8.33;;;0.20;67.10;;;;;;4997079;28;20453;-73
2021/03/07 07:19:00;;;;;;;8.53;6.60;;;0.20;66.00;;;;;;5005265;28;20211;-74
2021/03/07 07:21:26;;;;;;;13.10;7.33;;;0.30;65.20;;;;;;4976047;28;20411;-73
2021/03/07 07:23:52;;;;;;;11.43;7.27;;;0.30;64.60;;;;;;4993696;28;20449;-73
2021/03/07 07:26:18;;;;;;;12.43;8.30;;;0.40;64.40;;;;;;4976019;28;20976;-74
2021/03/07 07:28:44;;;;;;;19.40;8.00;;;0.50;64.30;;;;;;4993458;28;20426;-74
2021/03/07 07:31:20;;;;;;;13.47;8.37;;;0.50;64.00;;;;;;4976744;28;20426;-74
2021/03/07 07:33:53;;;;;;;15.47;8.87;;;0.60;63.80;;;;;;5004574;28;20178;-73
2021/03/07 07:36:45;;;;;;;14.17;7.57;;;0.70;63.90;;;;;;5013729;28;20431;-73
2021/03/07 07:39:14;;;;;;;12.97;7.93;;;0.70;63.50;;;;;;5015541;28;20492;-73
2021/03/07 07:41:40;;;;;;;12.63;7.40;;;0.80;63.30;;;;;;4995604;28;20813;-73
2021/03/07 07:44:08;;;;;;;10.83;7.40;;;0.80;63.40;;;;;;5013326;28;20764;-74
2021/03/07 07:46:51;;;;;;;11.47;7.07;;;0.90;62.90;;;;;;5013473;28;20465;-75
2021/03/07 07:49:37;;;;;;;12.97;7.60;;;0.90;62.30;;;;;;4993231;28;20442;-74
2021/03/07 07:52:35;;;;;;;11.57;8.17;;;1.00;62.70;;;;;;4992311;28;20427;-75
2021/03/07 07:55:03;;;;;;;11.17;7.93;;;1.00;62.40;;;;;;5001265;28;20417;-75
2021/03/07 07:57:32;;;;;;;15.70;9.50;;;1.10;62.10;;;;;;5023820;28;20429;-75
2021/03/07 07:59:59;;;;;;;11.33;8.03;;;1.20;61.90;;;;;;5016398;28;20989;-75
2021/03/07 08:02:46;;;;;;;10.77;7.13;;;1.90;64.00;;;;;;4977402;28;20538;-75
2021/03/07 08:05:21;;;;;;;16.43;7.67;;;4.00;58.90;;;;;;4992759;28;20403;-73
2021/03/07 08:08:06;;;;;;;10.53;7.43;;;5.70;54.40;;;;;;4992454;28;20410;-74
2021/03/07 08:10:45;;;;;;;12.40;7.30;;;7.20;51.10;;;;;;4993273;28;20410;-75
2021/03/07 08:13:15;;;;;;;13.10;8.17;;;8.30;47.30;;;;;;5008863;28;20425;-74
2021/03/07 08:15:51;;;;;;;14.33;8.80;;;8.90;44.60;;;;;;5012513;28;20494;-74
2021/03/07 08:18:19;;;;;;;12.37;7.93;;;9.10;43.20;;;;;;5011592;28;20433;-74
2021/03/07 08:20:45;;;;;;;11.00;8.00;;;9.20;42.90;;;;;;5009322;28;20421;-74
2021/03/07 08:23:16;;;;;;;11.53;8.20;;;9.50;42.40;;;;;;4993887;28;20986;-74
2021/03/07 08:25:50;;;;;;;12.20;8.63;;;9.70;41.90;;;;;;4995540;28;20195;-73
2021/03/07 08:28:25;;;;;;;11.30;8.20;;;10.50;40.70;;;;;;5019227;28;20413;-76
2021/03/07 08:30:55;;;;;;;8.03;7.00;;;11.30;39.20;;;;;;5002065;28;20445;-75
2021/03/07 08:33:26;;;;;;;11.77;8.00;;;12.10;37.70;;;;;;5017748;28;20406;-76
2021/03/07 08:36:21;;;;;;;12.37;8.37;;;12.70;36.10;;;;;;4985575;28;20442;-74
2021/03/07 08:38:52;;;;;;;10.23;8.20;;;13.20;35.10;;;;;;4982163;28;20457;-77
2021/03/07 08:41:26;;;;;;;12.20;8.13;;;13.80;33.80;;;;;;4995555;28;20524;-75
2021/03/07 08:43:53;;;;;;;11.30;7.97;;;13.90;32.80;;;;;;4999345;28;20461;-77
2021/03/07 08:46:21;;;;;;;8.53;7.30;;;14.20;32.20;;;;;;5015205;28;20445;-74
2021/03/07 08:48:55;;;;;;;11.10;7.50;;;14.10;31.50;;;;;;5010865;28;20418;-76
2021/03/07 08:51:30;;;;;;;10.00;7.93;;;14.20;30.60;;;;;;5013487;28;20401;-76
2021/03/07 08:54:04;;;;;;;10.00;6.60;;;14.30;30.60;;;;;;5014654;28;20791;-75
2021/03/07 08:56:30;;;;;;;11.83;8.73;;;14.40;30.60;;;;;;5014281;28;20441;-75
2021/03/07 08:58:56;;;;;;;12.10;9.20;;;14.40;30.00;;;;;;5014784;28;20797;-75
2021/03/07 09:01:24;;;;;;;13.70;8.43;;;14.10;30.00;;;;;;4995154;28;20445;-76
2021/03/07 09:03:55;;;;;;;12.30;7.87;;;14.10;31.00;;;;;;4981502;28;20419;-76
2021/03/07 09:06:20;;;;;;;11.80;7.30;;;14.70;30.50;;;;;;5008474;28;20450;-74
2021/03/07 09:08:46;;;;;;;10.73;7.90;;;14.60;29.70;;;;;;4994901;28;20467;-75
2021/03/07 09:11:12;;;;;;;10.90;8.13;;;14.50;30.00;;;;;;5013676;28;20455;-75
2021/03/07 09:13:50;;;;;;;8.60;7.70;;;14.80;29.90;;;;;;5024084;28;20171;-74
2021/03/07 09:16:16;;;;;;;9.40;7.00;;;15.00;29.30;;;;;;4987656;28;20219;-73
2021/03/07 09:18:43;;;;;;;10.93;7.63;;;15.00;29.00;;;;;;5005048;28;20454;-75
2021/03/07 09:21:10;;;;;;;9.80;6.60;;;14.40;29.20;;;;;;5016196;28;20422;-73
2021/03/07 09:23:47;;;;;;;9.30;6.97;;;14.50;29.10;;;;;;5017116;28;20430;-73
2021/03/07 09:26:14;;;;;;;12.10;7.20;;;14.70;28.90;;;;;;4982667;28;20459;-75
2021/03/07 09:28:48;;;;;;;10.90;7.70;;;14.50;29.00;;;;;;5012427;28;20468;-75
2021/03/07 09:31:19;;;;;;;10.63;7.20;;;13.90;29.60;;;;;;5017682;28;20440;-75
2021/03/07 09:33:50;;;;;;;9.83;7.10;;;13.50;30.30;;;;;;5016035;28;20461;-74
2021/03/07 09:36:18;;;;;;;13.50;7.50;;;13.40;30.30;;;;;;4988100;28;20983;-75
2021/03/07 09:38:46;;;;;;;18.10;7.70;;;13.40;30.50;;;;;;5003484;28;20511;-75
2021/03/07 09:41:39;;;;;;;9.23;6.60;;;13.80;30.80;;;;;;5023614;28;20456;-75
2021/03/07 09:44:16;;;;;;;10.97;6.30;;;13.60;30.00;;;;;;5018358;28;20551;-75
2021/03/07 09:46:47;;;;;;;9.63;6.10;;;13.20;30.90;;;;;;5027599;28;20987;-73
2021/03/07 09:49:19;;;;;;;7.83;6.17;;;12.80;31.90;;;;;;5029168;28;20413;-75
2021/03/07 09:51:49;;;;;;;9.17;7.50;;;13.10;31.40;;;;;;5004637;28;20432;-78
2021/03/07 09:54:16;;;;;;;8.80;7.07;;;13.70;30.70;;;;;;4999420;28;20428;-75
2021/03/07 09:56:43;;;;;;;9.10;6.20;;;13.80;30.00;;;;;;5017103;28;20437;-75
2021/03/07 09:59:12;;;;;;;7.00;6.07;;;14.00;30.00;;;;;;4991919;28;20470;-75
2021/03/07 10:01:49;;;;;;;8.50;6.23;;;13.50;30.20;;;;;;5011385;28;21103;-75
2021/03/07 10:04:33;;;;;;;9.00;6.23;;;12.90;30.60;;;;;;4991773;28;20502;-73
2021/03/07 10:07:01;;;;;;;14.40;8.50;;;12.70;31.10;;;;;;4992669;28;20455;-74
2021/03/07 10:09:26;;;;;;;8.20;6.40;;;13.10;31.10;;;;;;5013195;28;20458;-75
2021/03/07 10:11:57;;;;;;;9.30;6.37;;;13.00;30.90;;;;;;4998696;28;20426;-73
2021/03/07 10:14:31;;;;;;;10.97;7.90;;;12.60;31.40;;;;;;5016331;28;20931;-74
2021/03/07 10:17:00;;;;;;;9.50;7.33;;;12.70;31.80;;;;;;5023171;28;20906;-75
2021/03/07 10:19:36;;;;;;;14.83;7.30;;;13.00;31.80;;;;;;4996475;28;20826;-74
2021/03/07 10:22:04;;;;;;;8.47;6.00;;;13.30;31.10;;;;;;5014336;28;20429;-75
2021/03/07 10:24:33;;;;;;;15.50;7.73;;;13.20;30.50;;;;;;5009650;28;20422;-76
2021/03/07 10:27:08;;;;;;;10.27;7.60;;;13.30;31.20;;;;;;5003886;28;20469;-74
2021/03/07 10:29:39;;;;;;;14.80;8.30;;;13.40;30.10;;;;;;5023669;28;20433;-75
2021/03/07 10:32:16;;;;;;;10.90;8.10;;;12.50;31.60;;;;;;4994709;28;20423;-74
2021/03/07 10:34:44;;;;;;;11.33;7.40;;;12.00;32.00;;;;;;4996810;28;20487;-76
2021/03/07 10:37:33;;;;;;;22.73;10.03;;;11.10;32.20;;;;;;5015882;28;20454;-74
2021/03/07 10:39:59;;;;;;;10.53;8.37;;;10.40;33.80;;;;;;4981412;28;20526;-74
2021/03/07 10:42:33;;;;;;;8.83;7.27;;;10.00;33.80;;;;;;4998534;28;20681;-74
2021/03/07 10:45:11;;;;;;;12.13;9.10;;;9.70;35.10;;;;;;4998675;28;20176;-75
2021/03/07 10:47:37;;;;;;;10.93;8.40;;;9.50;35.90;;;;;;4997042;28;20401;-74
2021/03/07 10:50:04;;;;;;;12.20;9.10;;;9.40;36.10;;;;;;4995100;28;20419;-75
2021/03/07 10:52:30;;;;;;;14.73;8.30;;;9.30;36.40;;;;;;4994288;28;20167;-75
2021/03/07 10:54:56;;;;;;;11.10;8.17;;;9.10;36.20;;;;;;4987561;28;20410;-74
2021/03/07 10:57:22;;;;;;;14.73;8.50;;;9.10;36.60;;;;;;5011843;28;20221;-75
2021/03/07 10:59:52;;;;;;;15.27;8.17;;;9.10;36.50;;;;;;4994269;28;20257;-75
2021/03/07 11:02:18;;;;;;;11.17;8.53;;;9.00;36.50;;;;;;4993972;28;20901;-75
2021/03/07 11:04:47;;;;;;;13.77;8.93;;;8.70;36.70;;;;;;5002723;28;21188;-76
2021/03/07 11:07:13;;;;;;;15.87;7.87;;;8.50;37.20;;;;;;4995914;28;20438;-74
2021/03/07 11:09:41;;;;;;;11.27;8.10;;;8.30;37.80;;;;;;5012364;28;20410;-74
2021/03/07 11:12:07;;;;;;;21.70;12.40;;;8.20;38.60;;;;;;5014941;28;20422;-74
2021/03/07 11:14:33;;;;;;;10.70;8.10;;;8.20;38.90;;;;;;5028630;28;20778;-76
2021/03/07 11:17:05;;;;;;;9.50;8.40;;;8.20;39.20;;;;;;5027590;28;20437;-77
2021/03/07 11:19:30;;;;;;;14.53;8.30;;;8.20;38.60;;;;;;5018283;28;20218;-74
2021/03/07 11:21:59;;;;;;;13.93;7.33;;;8.20;39.00;;;;;;5016222;28;20455;-74
2021/03/07 11:24:24;;;;;;;12.93;9.80;;;8.20;39.40;;;;;;5015393;28;20202;-75
2021/03/07 11:26:51;;;;;;;13.83;8.00;;;8.10;39.10;;;;;;5005879;28;20452;-76
2021/03/07 11:29:16;;;;;;;10.53;9.03;;;8.00;39.10;;;;;;4986178;28;20179;-75
2021/03/07 11:31:42;;;;;;;11.73;7.40;;;7.90;39.20;;;;;;4993243;28;20982;-75
2021/03/07 11:34:08;;;;;;;16.27;11.37;;;7.90;39.70;;;;;;4993144;28;20222;-75
2021/03/07 11:36:33;;;;;;;33.73;15.50;;;8.10;40.00;;;;;;4974859;28;20200;-74
2021/03/07 11:38:59;;;;;;;20.77;9.80;;;8.00;40.20;;;;;;4993116;28;20219;-75
2021/03/07 11:41:25;;;;;;;13.30;8.77;;;8.10;40.00;;;;;;5011772;28;20236;-75
2021/03/07 11:43:51;;;;;;;10.67;7.40;;;8.10;39.60;;;;;;4996209;28;20230;-75
2021/03/07 11:46:17;;;;;;;13.80;8.40;;;8.20;39.10;;;;;;5011463;28;20462;-74
2021/03/07 11:48:42;;;;;;;13.47;8.60;;;8.20;39.30;;;;;;5002595;28;20241;-73
2021/03/07 11:51:08;;;;;;;11.73;8.00;;;8.20;40.20;;;;;;4993270;28;20176;-75
2021/03/07 11:53:33;;;;;;;8.63;6.63;;;8.20;40.30;;;;;;5007626;28;20214;-75
2021/03/07 11:55:59;;;;;;;15.47;9.90;;;8.20;40.40;;;;;;5032278;28;20190;-74
2021/03/07 11:58:25;;;;;;;18.43;9.83;;;8.30;41.30;;;;;;5021905;28;20203;-75
2021/03/07 12:00:50;;;;;;;12.40;8.97;;;8.20;42.20;;;;;;5012115;28;20221;-75
2021/03/07 12:03:16;;;;;;;18.83;11.00;;;8.10;43.00;;;;;;4993805;28;20245;-75
2021/03/07 12:05:42;;;;;;;15.37;9.47;;;8.10;44.00;;;;;;5012666;28;20190;-75
2021/03/07 12:08:07;;;;;;;14.47;8.93;;;8.20;44.40;;;;;;5000210;28;20238;-75
2021/03/07 12:10:33;;;;;;;14.20;8.83;;;8.20;43.90;;;;;;4975005;28;20688;-75
2021/03/07 12:12:59;;;;;;;11.80;8.70;;;8.20;43.90;;;;;;5013494;28;20171;-75
2021/03/07 12:15:24;;;;;;;13.20;8.83;;;8.30;44.10;;;;;;5011498;28;20195;-75
2021/03/07 12:17:53;;;;;;;14.33;9.07;;;8.50;43.70;;;;;;5011916;28;20195;-76
2021/03/07 12:20:19;;;;;;;18.23;10.57;;;8.60;43.30;;;;;;4963514;28;20244;-75
2021/03/07 12:22:46;;;;;;;17.80;9.07;;;8.70;42.80;;;;;;4959465;28;20569;-75
2021/03/07 12:25:13;;;;;;;9.17;7.83;;;8.80;41.40;;;;;;4975585;28;20175;-75
2021/03/07 12:27:39;;;;;;;10.87;7.50;;;8.80;41.50;;;;;;4977430;28;20462;-76
2021/03/07 12:30:06;;;;;;;11.70;7.73;;;8.70;42.10;;;;;;5007695;28;20422;-74
2021/03/07 12:32:31;;;;;;;11.53;9.13;;;8.70;41.80;;;;;;4998451;28;20433;-73
2021/03/07 12:34:57;;;;;;;11.33;8.00;;;8.70;42.10;;;;;;4994724;28;20422;-75
2021/03/07 12:37:23;;;;;;;10.07;7.17;;;8.70;42.50;;;;;;4997556;28;20229;-75
2021/03/07 12:39:48;;;;;;;12.03;8.77;;;8.50;42.10;;;;;;5009877;28;20222;-74
2021/03/07 12:42:14;;;;;;;11.53;7.53;;;8.50;42.30;;;;;;5012731;28;20167;-74
2021/03/07 12:44:39;;;;;;;11.67;8.03;;;8.40;42.30;;;;;;5012352;28;20167;-74
2021/03/07 12:47:05;;;;;;;11.20;7.10;;;8.50;42.20;;;;;;5011901;28;20210;-74
2021/03/07 12:49:31;;;;;;;13.10;7.97;;;8.50;41.50;;;;;;5011547;28;20544;-74
2021/03/07 12:51:57;;;;;;;9.27;7.30;;;8.50;40.90;;;;;;5012258;28;20258;-75